Time;durP1;ratioP1;P1;durP2;ratioP2;P2;SDS_P1;SDS_P2;PMS_P1;PMS_P2;Temp;Humidity;BMP_temperature;BMP_pressure;BME280_temperature;BME280_humidity;BME280_pressure;Samples;Min_cycle;Max_cycle;Signal;HPM_P1;HPM_P2
2021/05/16 00:01:15;;;;;;;13.40;8.13;;;11.30;91.60;;;;;;5016310;28;20065;-82
2021/05/16 00:03:59;;;;;;;13.18;8.20;;;11.30;91.60;;;;;;5015130;28;20030;-80
2021/05/16 00:09:08;;;;;;;12.38;8.80;;;11.30;91.60;;;;;;5016726;28;20231;-82
2021/05/16 00:14:18;;;;;;;15.10;9.20;;;11.30;91.60;;;;;;5016785;28;20056;-82
2021/05/16 00:19:28;;;;;;;23.67;11.00;;;11.40;91.70;;;;;;5014903;28;20121;-83
2021/05/16 00:22:12;;;;;;;22.80;10.20;;;11.40;91.70;;;;;;5013141;28;20057;-82
2021/05/16 00:24:56;;;;;;;22.02;11.77;;;11.30;91.80;;;;;;5013215;28;20201;-80
2021/05/16 00:27:41;;;;;;;17.77;10.25;;;11.40;91.90;;;;;;5014286;28;20285;-82
2021/05/16 00:30:09;;;;;;;26.60;12.02;;;11.40;92.10;;;;;;5014016;28;20025;-81
2021/05/16 00:35:23;;;;;;;15.93;9.77;;;11.40;92.20;;;;;;5015600;28;20057;-80
2021/05/16 00:38:08;;;;;;;19.20;10.57;;;11.40;92.10;;;;;;5013412;28;20022;-81
2021/05/16 00:40:52;;;;;;;21.02;9.82;;;11.30;92.20;;;;;;5012585;28;20386;-82
2021/05/16 00:43:36;;;;;;;20.38;10.98;;;11.40;92.10;;;;;;5012593;28;20109;-82
2021/05/16 00:46:02;;;;;;;24.08;10.50;;;11.40;92.20;;;;;;5013094;28;20033;-81
2021/05/16 00:48:47;;;;;;;18.38;9.57;;;11.40;92.10;;;;;;5012995;28;20022;-81
2021/05/16 00:53:58;;;;;;;18.98;8.82;;;11.40;91.90;;;;;;5014376;28;20037;-82
2021/05/16 00:56:23;;;;;;;26.80;10.93;;;11.40;92.00;;;;;;5013925;28;20026;-81
2021/05/16 00:58:49;;;;;;;25.33;10.85;;;11.40;92.20;;;;;;5013328;28;20528;-81
2021/05/16 01:01:33;;;;;;;21.02;10.75;;;11.50;92.30;;;;;;5013063;28;20030;-81
2021/05/16 01:03:59;;;;;;;22.65;10.30;;;11.40;92.20;;;;;;5016089;28;20026;-82
2021/05/16 01:06:24;;;;;;;26.10;10.43;;;11.40;92.20;;;;;;5016364;28;20028;-81
2021/05/16 01:09:09;;;;;;;22.10;10.23;;;11.40;92.30;;;;;;5016437;28;20036;-82
2021/05/16 01:14:43;;;;;;;24.05;10.23;;;11.40;92.40;;;;;;5019482;28;20056;-84
2021/05/16 01:20:49;;;;;;;30.80;10.88;;;11.40;92.50;;;;;;5040553;28;20040;-83
2021/05/16 01:23:26;;;;;;;26.80;11.90;;;11.40;92.50;;;;;;5040117;28;20049;-81
2021/05/16 01:25:52;;;;;;;29.23;10.43;;;11.40;92.60;;;;;;5039366;28;20170;-79
2021/05/16 01:31:05;;;;;;;19.95;12.35;;;11.30;92.70;;;;;;5018846;28;20057;-83
2021/05/16 01:36:34;;;;;;;28.83;11.43;;;11.30;92.80;;;;;;5017558;28;20057;-82
2021/05/16 01:42:04;;;;;;;29.65;11.68;;;11.30;92.80;;;;;;5017546;28;20075;-81
2021/05/16 01:47:33;;;;;;;29.85;10.68;;;11.30;92.80;;;;;;5016993;28;20076;-84
2021/05/16 01:50:13;;;;;;;30.67;10.68;;;11.30;92.80;;;;;;5016766;28;20026;-83
2021/05/16 01:52:40;;;;;;;36.03;11.25;;;11.30;92.70;;;;;;5017765;28;20029;-83
2021/05/16 01:55:08;;;;;;;32.90;11.00;;;11.30;92.80;;;;;;5017724;28;20478;-83
2021/05/16 02:00:30;;;;;;;22.42;8.45;;;11.30;92.60;;;;;;5017075;28;20121;-83
2021/05/16 02:02:57;;;;;;;33.05;10.48;;;11.30;92.50;;;;;;5016040;28;20421;-82
2021/05/16 02:05:23;;;;;;;32.72;10.27;;;11.30;92.10;;;;;;5015039;28;20022;-82
2021/05/16 02:07:49;;;;;;;42.20;12.20;;;11.30;92.30;;;;;;5015933;28;20030;-83
2021/05/16 02:19:09;;;;;;;29.10;10.68;;;11.30;92.40;;;;;;5018214;28;20056;-83
2021/05/16 02:25:15;;;;;;;37.00;12.18;;;11.30;92.30;;;;;;5016969;28;20552;-82
2021/05/16 02:27:59;;;;;;;32.75;11.70;;;11.30;92.20;;;;;;5015232;28;20025;-82
2021/05/16 02:30:44;;;;;;;39.83;11.43;;;11.30;92.30;;;;;;5015078;28;20049;-82
2021/05/16 02:33:28;;;;;;;33.80;11.93;;;11.30;92.30;;;;;;5015079;28;20116;-83
2021/05/16 02:35:54;;;;;;;34.67;10.02;;;11.20;92.20;;;;;;5014628;28;20482;-83
2021/05/16 02:38:38;;;;;;;36.42;12.20;;;11.20;92.10;;;;;;5014809;28;20025;-84
2021/05/16 02:41:12;;;;;;;35.80;10.93;;;11.20;92.00;;;;;;5015042;28;20033;-83
2021/05/16 02:43:38;;;;;;;35.80;11.63;;;11.20;92.50;;;;;;5015460;28;20026;-83
2021/05/16 02:52:12;;;;;;;31.52;9.43;;;11.20;92.20;;;;;;5016968;28;20041;-83
2021/05/16 03:00:44;;;;;;;36.13;11.18;;;11.20;92.30;;;;;;5016308;28;20071;-83
2021/05/16 03:06:32;;;;;;;38.10;11.27;;;11.20;92.30;;;;;;5017215;28;20044;-83
2021/05/16 03:08:58;;;;;;;33.45;11.00;;;11.20;92.20;;;;;;5017071;28;20018;-84
2021/05/16 03:11:42;;;;;;;41.33;11.88;;;11.20;92.30;;;;;;5023210;28;20080;-83
2021/05/16 03:14:08;;;;;;;33.78;11.07;;;11.10;92.10;;;;;;5033792;28;20026;-84
2021/05/16 03:16:54;;;;;;;32.70;11.60;;;11.20;92.30;;;;;;5033171;28;20025;-84
2021/05/16 03:19:20;;;;;;;37.63;11.55;;;11.20;92.20;;;;;;5037622;28;20085;-83
2021/05/16 03:21:49;;;;;;;40.97;10.50;;;11.10;92.30;;;;;;5037227;28;20025;-82
2021/05/16 03:24:14;;;;;;;29.98;10.73;;;11.10;92.20;;;;;;5037643;28;20441;-83
2021/05/16 03:29:43;;;;;;;26.55;8.43;;;11.20;92.30;;;;;;5017608;28;20041;-83
2021/05/16 03:32:08;;;;;;;35.85;10.73;;;11.20;92.40;;;;;;5020624;28;20022;-80
2021/05/16 03:34:53;;;;;;;35.50;10.75;;;11.20;92.30;;;;;;5029946;28;20458;-82
2021/05/16 03:37:19;;;;;;;33.72;10.93;;;11.20;92.00;;;;;;5016831;28;20049;-83
2021/05/16 03:40:03;;;;;;;29.13;8.82;;;11.20;92.10;;;;;;5014870;28;20022;-83
2021/05/16 03:42:48;;;;;;;43.53;10.50;;;11.20;92.00;;;;;;5014267;28;20034;-82
2021/05/16 03:48:19;;;;;;;33.30;8.98;;;11.20;92.10;;;;;;5015974;28;20040;-84
2021/05/16 03:50:45;;;;;;;41.75;11.13;;;11.20;92.10;;;;;;5013387;28;20093;-84
2021/05/16 03:53:11;;;;;;;37.33;11.05;;;11.20;92.00;;;;;;5014234;28;20053;-84
2021/05/16 03:58:39;;;;;;;35.30;11.35;;;11.20;92.10;;;;;;5015484;28;20497;-83
2021/05/16 04:03:48;;;;;;;36.15;10.68;;;11.10;92.00;;;;;;5015358;28;20048;-83
2021/05/16 04:06:14;;;;;;;32.72;10.13;;;11.20;91.50;;;;;;5014297;28;20033;-84
2021/05/16 04:08:58;;;;;;;26.25;8.40;;;11.10;91.80;;;;;;5016083;28;20037;-84
2021/05/16 04:17:31;;;;;;;33.60;11.80;;;11.20;92.00;;;;;;5016732;28;20079;-84
2021/05/16 04:20:00;;;;;;;30.55;10.80;;;11.20;91.90;;;;;;5016233;28;20022;-83
2021/05/16 04:22:44;;;;;;;29.80;11.50;;;11.30;91.50;;;;;;5014730;28;20103;-83
2021/05/16 04:25:10;;;;;;;35.15;11.10;;;11.20;91.60;;;;;;5014250;28;20091;-84
2021/05/16 04:30:42;;;;;;;34.88;12.02;;;11.20;91.60;;;;;;5017026;28;20072;-85
2021/05/16 04:33:08;;;;;;;38.15;12.73;;;11.20;91.30;;;;;;5018387;28;20026;-85
2021/05/16 04:36:11;;;;;;;37.13;13.40;;;11.20;91.50;;;;;;5017092;28;20057;-85
2021/05/16 04:38:40;;;;;;;32.83;12.82;;;11.20;91.50;;;;;;5014205;28;20030;-84
2021/05/16 04:41:24;;;;;;;40.28;13.93;;;11.30;91.40;;;;;;5013666;28;20025;-84
2021/05/16 04:43:50;;;;;;;33.22;12.20;;;11.30;91.50;;;;;;5013616;28;20076;-84
2021/05/16 04:46:15;;;;;;;34.38;11.30;;;11.20;91.60;;;;;;5013486;28;20021;-83
2021/05/16 04:51:44;;;;;;;54.50;16.20;;;11.20;90.90;;;;;;5015059;28;20577;-84
2021/05/16 04:54:47;;;;;;;45.20;14.23;;;11.20;91.40;;;;;;5013467;28;20042;-83
2021/05/16 04:57:13;;;;;;;42.28;14.15;;;11.20;91.10;;;;;;5014314;28;20073;-83
2021/05/16 04:59:39;;;;;;;39.28;14.70;;;11.20;91.40;;;;;;5014487;28;20363;-83
2021/05/16 05:02:23;;;;;;;41.28;14.15;;;11.20;91.40;;;;;;5013643;28;20528;-83
2021/05/16 05:11:19;;;;;;;35.30;12.70;;;11.10;91.50;;;;;;5031453;28;20476;-85
2021/05/16 05:13:45;;;;;;;48.45;16.80;;;11.20;91.40;;;;;;5028434;28;20041;-84
2021/05/16 05:19:33;;;;;;;31.27;12.98;;;11.10;91.40;;;;;;5035705;28;20052;-83
2021/05/16 05:25:02;;;;;;;40.22;15.88;;;11.10;91.40;;;;;;5034074;28;20110;-82
2021/05/16 05:28:05;;;;;;;31.17;12.35;;;11.20;91.30;;;;;;5022827;28;20060;-82
2021/05/16 05:30:49;;;;;;;43.25;12.80;;;11.20;91.60;;;;;;5012476;28;20030;-83
2021/05/16 05:33:15;;;;;;;40.05;14.95;;;11.20;91.20;;;;;;5013251;28;20486;-83
2021/05/16 05:38:44;;;;;;;37.67;15.35;;;11.20;91.40;;;;;;5016829;28;20045;-83
2021/05/16 05:41:10;;;;;;;43.13;16.70;;;11.20;91.40;;;;;;5029481;28;20010;-82
2021/05/16 05:43:35;;;;;;;30.95;12.63;;;11.20;91.70;;;;;;5021595;28;20037;-82
2021/05/16 05:46:01;;;;;;;42.70;15.90;;;11.20;91.30;;;;;;5013612;28;20502;-82
2021/05/16 05:48:26;;;;;;;38.75;15.90;;;11.30;91.40;;;;;;5012528;28;20405;-83
2021/05/16 05:50:52;;;;;;;40.08;16.15;;;11.30;91.30;;;;;;5018658;28;20106;-84
2021/05/16 05:53:37;;;;;;;48.10;15.55;;;11.30;90.70;;;;;;5017623;28;20187;-83
2021/05/16 05:58:48;;;;;;;39.67;16.02;;;11.30;91.00;;;;;;5016771;28;20076;-82
2021/05/16 06:04:16;;;;;;;40.85;17.08;;;11.30;91.20;;;;;;5017532;28;20036;-82
2021/05/16 06:07:01;;;;;;;39.42;13.82;;;11.40;91.20;;;;;;5015206;28;20022;-83
2021/05/16 06:15:18;;;;;;;47.67;18.35;;;11.40;91.00;;;;;;5017873;28;20117;-83
2021/05/16 06:20:46;;;;;;;46.30;18.27;;;11.50;90.70;;;;;;5018906;28;20037;-82
2021/05/16 06:23:43;;;;;;;30.95;15.60;;;11.60;90.60;;;;;;5019215;28;20029;-82
2021/05/16 06:26:27;;;;;;;40.05;19.52;;;11.60;90.20;;;;;;5018950;28;20030;-80
2021/05/16 06:29:22;;;;;;;47.63;19.45;;;11.70;90.20;;;;;;5019521;28;20033;-81
2021/05/16 06:32:10;;;;;;;48.53;19.52;;;11.70;90.30;;;;;;5019786;28;20026;-82
2021/05/16 06:34:44;;;;;;;41.97;16.27;;;11.80;90.40;;;;;;5019335;28;20374;-82
2021/05/16 06:40:03;;;;;;;34.28;14.90;;;11.70;89.00;;;;;;5021512;28;20458;-82
2021/05/16 06:46:09;;;;;;;42.92;16.98;;;11.80;89.60;;;;;;5019624;28;20110;-82
2021/05/16 06:49:07;;;;;;;47.47;17.67;;;11.80;90.00;;;;;;5016726;28;20425;-82
2021/05/16 06:51:38;;;;;;;37.55;16.25;;;11.90;89.60;;;;;;5015979;28;20076;-82
2021/05/16 06:54:04;;;;;;;;;;;11.90;88.70;;;;;;5020063;28;20034;-81
2021/05/16 06:56:30;;;;;;;38.13;14.02;;;11.90;89.00;;;;;;5016628;28;19906;-82
2021/05/16 07:02:06;;;;;;;34.95;14.55;;;12.10;88.70;;;;;;5012767;28;20088;-82
2021/05/16 07:04:34;;;;;;;39.63;13.40;;;12.30;88.30;;;;;;5027856;28;20022;-82
2021/05/16 07:10:23;;;;;;;34.42;13.25;;;12.50;87.10;;;;;;5020811;28;20052;-83
2021/05/16 07:12:48;;;;;;;32.38;11.55;;;12.70;85.50;;;;;;5022235;28;20029;-82
2021/05/16 07:15:15;;;;;;;27.85;10.25;;;12.90;84.20;;;;;;5034095;28;20026;-82
2021/05/16 07:23:10;;;;;;;30.05;11.90;;;13.20;83.80;;;;;;5037539;28;20064;-82
2021/05/16 07:25:35;;;;;;;33.45;13.20;;;13.20;82.40;;;;;;5018737;28;20482;-83
2021/05/16 07:34:07;;;;;;;31.20;12.10;;;13.30;81.20;;;;;;5015941;28;20045;-83
2021/05/16 07:36:51;;;;;;;26.98;9.52;;;13.20;81.60;;;;;;5014141;28;20141;-81
2021/05/16 07:39:17;;;;;;;33.22;14.20;;;13.00;81.80;;;;;;5014433;28;20446;-83
2021/05/16 07:41:43;;;;;;;33.25;13.85;;;12.90;82.60;;;;;;5014828;28;20065;-84
2021/05/16 07:47:52;;;;;;;28.13;13.18;;;12.80;83.20;;;;;;5032031;28;20040;-82
2021/05/16 07:56:10;;;;;;;29.95;11.05;;;12.50;83.70;;;;;;5017255;28;20119;-83
2021/05/16 07:58:55;;;;;;;28.63;8.70;;;12.50;84.60;;;;;;5015878;28;20049;-82
2021/05/16 08:01:20;;;;;;;32.55;12.23;;;12.50;84.30;;;;;;5016132;28;20117;-83
2021/05/16 08:03:46;;;;;;;37.10;13.35;;;12.50;84.30;;;;;;5016181;28;20061;-83
2021/05/16 08:06:13;;;;;;;34.65;13.00;;;12.60;84.90;;;;;;5015905;28;20124;-83
2021/05/16 08:08:39;;;;;;;27.25;12.63;;;12.70;84.20;;;;;;5014167;28;20045;-82
2021/05/16 08:11:05;;;;;;;32.53;13.55;;;12.70;83.10;;;;;;5013821;28;20038;-84
2021/05/16 08:13:31;;;;;;;35.20;14.45;;;12.90;83.10;;;;;;5014476;28;20124;-83
2021/05/16 08:18:59;;;;;;;34.25;14.65;;;12.90;82.20;;;;;;5017357;28;20037;-85
2021/05/16 08:21:25;;;;;;;34.95;15.45;;;13.10;83.00;;;;;;5015868;28;20037;-86
2021/05/16 08:23:50;;;;;;;30.17;15.48;;;13.30;82.90;;;;;;5016138;28;20022;-86
2021/05/16 08:26:35;;;;;;;36.65;14.25;;;13.50;80.40;;;;;;5016729;28;20017;-84
2021/05/16 08:29:01;;;;;;;37.70;16.17;;;13.50;79.90;;;;;;5016934;28;20113;-86
2021/05/16 08:31:46;;;;;;;32.42;13.77;;;13.70;79.30;;;;;;5016775;28;20095;-84
2021/05/16 08:34:49;;;;;;;28.67;14.48;;;13.80;79.50;;;;;;5017169;28;20022;-84
2021/05/16 08:37:34;;;;;;;32.58;15.85;;;13.90;79.40;;;;;;5013585;28;20041;-83
2021/05/16 08:40:18;;;;;;;28.52;15.52;;;13.70;78.50;;;;;;5015053;28;20030;-85
2021/05/16 08:42:44;;;;;;;43.13;16.10;;;13.70;79.50;;;;;;5016402;28;20084;-85
2021/05/16 08:47:56;;;;;;;31.27;14.85;;;13.70;79.30;;;;;;5016967;28;20564;-86
2021/05/16 08:50:22;;;;;;;38.72;16.30;;;13.80;78.80;;;;;;5015024;28;20113;-86
2021/05/16 08:53:07;;;;;;;39.83;17.35;;;14.00;78.40;;;;;;5015683;28;20022;-82
2021/05/16 08:56:11;;;;;;;31.52;14.32;;;14.10;77.20;;;;;;5024418;28;20026;-81
2021/05/16 08:58:37;;;;;;;35.60;14.63;;;14.20;76.60;;;;;;5029425;28;20018;-81
2021/05/16 09:01:20;;;;;;;27.65;13.85;;;14.50;76.40;;;;;;5017185;28;20390;-80
2021/05/16 09:03:46;;;;;;;31.35;13.77;;;15.10;75.50;;;;;;5013206;28;20022;-78
2021/05/16 09:06:13;;;;;;;32.17;14.95;;;15.50;71.80;;;;;;5012987;28;20462;-81
2021/05/16 09:08:42;;;;;;;23.80;9.32;;;15.70;69.80;;;;;;5020590;28;20024;-81
2021/05/16 09:11:08;;;;;;;24.50;11.85;;;15.90;70.40;;;;;;5018661;28;20064;-81
2021/05/16 09:13:40;;;;;;;25.92;11.13;;;15.90;69.20;;;;;;5030794;28;20010;-80
2021/05/16 09:16:17;;;;;;;24.42;10.90;;;16.00;68.50;;;;;;5030501;28;20045;-82
2021/05/16 09:18:48;;;;;;;31.38;10.00;;;16.00;67.80;;;;;;5036037;28;20025;-81
2021/05/16 09:21:25;;;;;;;27.45;10.52;;;16.00;67.90;;;;;;5032460;28;20034;-79
2021/05/16 09:24:10;;;;;;;26.20;11.70;;;16.20;68.30;;;;;;5016300;28;20374;-82
2021/05/16 09:26:57;;;;;;;27.63;10.20;;;16.60;66.20;;;;;;5017653;28;20064;-81
2021/05/16 09:29:41;;;;;;;32.25;10.80;;;16.70;66.60;;;;;;5017614;28;20022;-81
2021/05/16 09:32:47;;;;;;;27.75;11.18;;;16.70;65.50;;;;;;5017434;28;20049;-82
2021/05/16 09:35:31;;;;;;;28.55;11.05;;;16.80;65.60;;;;;;5016303;28;20053;-83
2021/05/16 09:41:03;;;;;;;31.38;12.23;;;17.20;64.80;;;;;;5018220;28;20041;-81
2021/05/16 09:43:32;;;;;;;20.70;10.50;;;17.00;63.60;;;;;;5019778;28;20124;-83
2021/05/16 09:46:06;;;;;;;17.80;8.45;;;16.70;63.60;;;;;;5021188;28;20508;-81
2021/05/16 09:48:44;;;;;;;22.00;9.02;;;16.60;64.30;;;;;;5018600;28;20026;-80
2021/05/16 09:51:31;;;;;;;15.45;6.75;;;16.90;62.80;;;;;;5030910;28;20018;-80
2021/05/16 09:54:15;;;;;;;15.68;6.07;;;17.30;65.80;;;;;;5021882;28;20048;-81
2021/05/16 09:56:43;;;;;;;18.58;7.18;;;17.70;63.60;;;;;;5021284;28;20030;-82
2021/05/16 09:59:11;;;;;;;17.10;7.50;;;17.80;64.60;;;;;;5017741;28;20037;-81
2021/05/16 10:01:56;;;;;;;14.75;5.03;;;18.00;65.10;;;;;;5016721;28;20118;-82
2021/05/16 10:04:40;;;;;;;13.70;5.35;;;18.20;65.40;;;;;;5016605;28;20076;-81
2021/05/16 10:07:25;;;;;;;16.70;5.65;;;18.40;62.70;;;;;;5015930;28;20052;-81
2021/05/16 10:10:12;;;;;;;14.90;4.40;;;18.20;61.00;;;;;;5017905;28;20037;-78
2021/05/16 10:12:56;;;;;;;17.83;5.75;;;18.20;63.70;;;;;;5018286;28;20109;-80
2021/05/16 10:15:28;;;;;;;13.45;5.50;;;18.20;61.70;;;;;;5016320;28;20029;-81
2021/05/16 10:17:56;;;;;;;12.65;4.95;;;18.20;61.00;;;;;;5015509;28;20038;-81
2021/05/16 10:23:50;;;;;;;18.55;4.70;;;18.40;62.00;;;;;;5018138;28;20254;-80
2021/05/16 10:26:16;;;;;;;15.85;5.68;;;18.60;60.30;;;;;;5017874;28;20026;-81
2021/05/16 10:29:02;;;;;;;14.95;5.35;;;18.60;59.60;;;;;;5017132;28;20029;-81
2021/05/16 10:31:41;;;;;;;15.90;4.90;;;18.40;59.90;;;;;;5017322;28;20029;-82
2021/05/16 10:52:29;;;;;;;12.00;3.88;;;17.40;68.80;;;;;;5028558;28;20048;-83
2021/05/16 10:54:55;;;;;;;14.40;3.38;;;17.60;68.30;;;;;;5017208;28;20449;-82
2021/05/16 10:57:24;;;;;;;16.15;3.92;;;17.80;66.00;;;;;;5016010;28;20018;-81
2021/05/16 11:02:58;;;;;;;15.25;3.85;;;18.00;63.80;;;;;;5016934;28;20044;-80
2021/05/16 11:06:01;;;;;;;14.90;3.90;;;17.90;64.00;;;;;;5017965;28;20397;-80
2021/05/16 11:08:45;;;;;;;15.20;3.78;;;17.80;66.00;;;;;;5017667;28;20026;-80
2021/05/16 11:14:30;;;;;;;13.15;3.45;;;17.70;60.90;;;;;;5035843;28;20103;-81
2021/05/16 11:16:59;;;;;;;15.57;4.03;;;17.90;64.70;;;;;;5035450;28;20029;-81
2021/05/16 11:19:30;;;;;;;18.90;4.68;;;18.20;60.60;;;;;;5035621;28;20086;-81
2021/05/16 11:22:15;;;;;;;14.13;3.58;;;18.20;58.90;;;;;;5023625;28;20431;-81
2021/05/16 11:27:33;;;;;;;16.33;4.38;;;18.20;59.40;;;;;;5019633;28;20495;-81
2021/05/16 11:30:11;;;;;;;15.55;3.78;;;18.70;58.50;;;;;;5016747;28;20092;-80
2021/05/16 11:32:55;;;;;;;14.82;4.30;;;19.20;59.00;;;;;;5015683;28;20030;-81
2021/05/16 11:35:22;;;;;;;14.93;4.72;;;19.20;55.50;;;;;;5017406;28;20046;-81
2021/05/16 11:37:52;;;;;;;18.35;4.63;;;19.00;54.80;;;;;;5018169;28;20022;-82
2021/05/16 11:43:30;;;;;;;19.85;3.85;;;18.60;59.40;;;;;;5017403;28;20033;-81
2021/05/16 11:46:18;;;;;;;14.55;4.35;;;18.20;58.50;;;;;;5015612;28;20054;-80
2021/05/16 11:48:45;;;;;;;17.90;4.13;;;17.80;59.60;;;;;;5013252;28;20025;-84
2021/05/16 11:54:17;;;;;;;17.55;4.28;;;16.60;69.40;;;;;;5027218;28;20041;-80
2021/05/16 11:57:01;;;;;;;18.08;4.65;;;16.30;67.50;;;;;;5024035;28;20024;-81
2021/05/16 12:02:35;;;;;;;13.10;3.80;;;16.00;66.40;;;;;;5015793;28;20077;-83
2021/05/16 12:05:00;;;;;;;14.93;3.60;;;15.90;67.60;;;;;;5015553;28;20022;-81
2021/05/16 12:07:46;;;;;;;12.40;3.38;;;15.90;70.80;;;;;;5014675;28;20363;-81
2021/05/16 12:13:24;;;;;;;7.32;2.05;;;16.00;68.90;;;;;;5017319;28;20124;-81
2021/05/16 12:16:17;;;;;;;9.15;2.72;;;16.10;71.30;;;;;;5014486;28;20029;-81
2021/05/16 12:18:44;;;;;;;11.88;2.50;;;16.30;71.10;;;;;;5017326;28;20462;-81
2021/05/16 12:24:04;;;;;;;5.82;1.52;;;16.70;68.90;;;;;;5016337;28;20382;-81
2021/05/16 12:26:50;;;;;;;7.40;2.13;;;17.30;69.00;;;;;;5015623;28;20162;-81
2021/05/16 12:29:17;;;;;;;5.82;1.65;;;17.80;67.90;;;;;;5016599;28;20030;-81
2021/05/16 12:34:46;;;;;;;6.65;1.70;;;18.40;65.70;;;;;;5019275;28;20061;-80
2021/05/16 12:37:17;;;;;;;7.00;1.85;;;18.60;65.50;;;;;;5018750;28;20026;-81
2021/05/16 12:39:50;;;;;;;9.93;2.85;;;18.50;65.80;;;;;;5022621;28;20029;-81
2021/05/16 12:42:23;;;;;;;6.60;1.75;;;18.30;62.70;;;;;;5035305;28;20058;-81
2021/05/16 12:44:49;;;;;;;7.03;1.45;;;18.10;65.40;;;;;;5027314;28;20022;-83
2021/05/16 12:47:33;;;;;;;8.63;2.10;;;18.10;66.60;;;;;;5020699;28;20037;-85
2021/05/16 12:50:20;;;;;;;11.38;2.40;;;18.10;67.80;;;;;;5018475;28;20061;-85
2021/05/16 13:01:42;;;;;;;7.07;1.80;;;19.10;61.40;;;;;;5020554;28;20076;-84
2021/05/16 13:04:35;;;;;;;8.35;2.40;;;18.80;63.40;;;;;;5018899;28;20030;-84
2021/05/16 13:07:02;;;;;;;8.07;2.13;;;18.70;63.80;;;;;;5020332;28;20014;-84
2021/05/16 13:09:29;;;;;;;7.30;1.70;;;18.40;64.00;;;;;;5023008;28;20022;-83
2021/05/16 13:15:08;;;;;;;7.25;2.15;;;17.90;66.10;;;;;;5039499;28;20126;-84
2021/05/16 13:20:55;;;;;;;8.70;3.08;;;17.40;67.30;;;;;;5031961;28;20040;-82
2021/05/16 13:23:26;;;;;;;12.63;2.92;;;17.10;65.90;;;;;;5024525;28;20030;-86
2021/05/16 13:26:11;;;;;;;7.97;2.90;;;16.80;69.20;;;;;;5028631;28;20052;-89
2021/05/16 13:28:56;;;;;;;14.48;2.80;;;16.30;68.20;;;;;;5026144;28;20030;-88
2021/05/16 13:34:46;;;;;;;10.35;2.75;;;15.10;73.60;;;;;;5022304;28;20079;-90
2021/05/16 13:37:12;;;;;;;6.43;2.58;;;14.60;75.20;;;;;;5027030;28;20072;-90
2021/05/16 13:39:56;;;;;;;6.80;1.80;;;14.30;77.10;;;;;;5026144;28;20026;-89
2021/05/16 13:45:25;;;;;;;9.88;3.00;;;14.10;78.30;;;;;;5022988;28;20088;-89
2021/05/16 13:47:51;;;;;;;11.02;2.60;;;13.90;78.30;;;;;;5021045;28;20026;-89
2021/05/16 13:50:17;;;;;;;7.53;2.40;;;13.80;77.70;;;;;;5021642;28;20104;-87
2021/05/16 13:52:50;;;;;;;10.65;2.78;;;13.60;79.60;;;;;;5021716;28;20112;-89
2021/05/16 13:55:34;;;;;;;7.63;2.53;;;13.60;79.70;;;;;;5025733;28;20022;-89
2021/05/16 13:58:02;;;;;;;8.70;2.25;;;13.60;79.70;;;;;;5035313;28;20041;-90
2021/05/16 14:00:50;;;;;;;10.30;2.75;;;13.60;80.30;;;;;;5036676;28;20128;-85
2021/05/16 14:06:37;;;;;;;8.30;2.22;;;13.70;80.70;;;;;;5020835;28;20079;-88
2021/05/16 14:09:06;;;;;;;6.68;1.88;;;13.90;81.40;;;;;;5017644;28;20076;-87
2021/05/16 14:11:33;;;;;;;11.03;2.17;;;14.10;80.90;;;;;;5018192;28;20026;-87
2021/05/16 14:17:20;;;;;;;7.60;2.42;;;14.50;81.30;;;;;;5020717;28;20119;-90
2021/05/16 14:19:45;;;;;;;7.88;2.13;;;14.90;80.90;;;;;;5021050;28;20036;-91
2021/05/16 14:22:12;;;;;;;7.45;1.92;;;15.20;79.40;;;;;;5019932;28;20026;-87
2021/05/16 14:24:38;;;;;;;7.15;2.10;;;15.40;77.60;;;;;;5019943;28;20018;-86
2021/05/16 14:29:49;;;;;;;9.10;2.35;;;15.60;77.00;;;;;;5022447;28;20041;-83
2021/05/16 14:32:33;;;;;;;6.78;1.73;;;15.80;77.90;;;;;;5031427;28;20458;-87
2021/05/16 14:41:25;;;;;;;5.32;1.60;;;16.80;72.40;;;;;;5026714;28;20044;-85
2021/05/16 14:46:54;;;;;;;4.57;1.90;;;17.30;69.00;;;;;;5019798;28;20084;-85
2021/05/16 14:49:20;;;;;;;4.88;1.33;;;17.60;68.20;;;;;;5021853;28;20022;-85
2021/05/16 14:52:25;;;;;;;5.45;1.55;;;17.80;67.40;;;;;;5020980;28;20021;-89
2021/05/16 14:54:50;;;;;;;4.07;1.30;;;17.90;67.70;;;;;;5020362;28;20024;-89
2021/05/16 14:57:16;;;;;;;4.72;1.50;;;18.10;67.40;;;;;;5031726;28;20089;-85
2021/05/16 14:59:42;;;;;;;3.20;1.00;;;18.20;66.80;;;;;;5024462;28;20022;-86
2021/05/16 15:02:26;;;;;;;3.90;1.15;;;18.30;66.10;;;;;;5022606;28;20045;-86
2021/05/16 15:05:14;;;;;;;5.43;1.40;;;18.30;66.10;;;;;;5022375;28;20033;-84
2021/05/16 15:07:39;;;;;;;5.50;1.75;;;18.10;64.90;;;;;;5021490;28;20026;-87
2021/05/16 15:10:24;;;;;;;5.47;1.75;;;17.80;64.40;;;;;;5032842;28;20040;-85
2021/05/16 15:12:49;;;;;;;6.80;2.08;;;17.60;65.90;;;;;;5034764;28;20022;-87
2021/05/16 15:18:20;;;;;;;4.93;1.85;;;17.20;68.40;;;;;;5036820;28;20056;-85
2021/05/16 15:23:49;;;;;;;2.35;1.17;;;17.10;68.90;;;;;;5018945;28;20045;-88
2021/05/16 15:26:15;;;;;;;6.75;2.08;;;17.10;70.00;;;;;;5018796;28;20025;-87
2021/05/16 15:28:42;;;;;;;7.82;1.85;;;17.00;70.00;;;;;;5017244;28;20466;-87
2021/05/16 15:34:11;;;;;;;4.32;1.20;;;16.90;69.00;;;;;;5018966;28;20096;-85
2021/05/16 15:36:39;;;;;;;4.38;1.50;;;16.90;68.90;;;;;;5018354;28;20073;-86
2021/05/16 15:39:27;;;;;;;5.45;1.60;;;16.80;68.70;;;;;;5017709;28;20445;-84
2021/05/16 15:45:14;;;;;;;7.30;1.98;;;16.80;67.00;;;;;;5016111;28;20130;-81
2021/05/16 15:47:39;;;;;;;3.85;1.55;;;16.70;66.70;;;;;;5015996;28;20029;-84
2021/05/16 15:50:24;;;;;;;3.90;1.33;;;16.60;66.00;;;;;;5019145;28;20390;-83
2021/05/16 15:53:12;;;;;;;7.00;2.05;;;16.50;69.60;;;;;;5017543;28;20033;-82
2021/05/16 15:55:56;;;;;;;6.05;1.38;;;16.50;67.80;;;;;;5016853;28;20076;-81
2021/05/16 16:01:32;;;;;;;4.38;1.80;;;16.60;69.00;;;;;;5019796;28;20032;-86
2021/05/16 16:04:01;;;;;;;5.53;1.50;;;16.60;66.40;;;;;;5032649;28;20049;-85
2021/05/16 16:06:26;;;;;;;4.47;1.33;;;16.60;65.60;;;;;;5022117;28;20014;-86
2021/05/16 16:08:52;;;;;;;3.60;1.40;;;16.60;66.40;;;;;;4997577;28;20022;-84
2021/05/16 16:11:18;;;;;;;3.92;1.25;;;16.60;65.50;;;;;;5012402;28;20034;-84
2021/05/16 16:13:44;;;;;;;4.75;1.33;;;16.60;66.50;;;;;;5009231;28;20038;-87
2021/05/16 16:16:10;;;;;;;3.30;1.10;;;16.60;66.90;;;;;;5016902;28;20026;-85
2021/05/16 16:21:57;;;;;;;7.03;1.73;;;16.50;66.20;;;;;;5021497;28;20445;-86
2021/05/16 16:27:46;;;;;;;6.53;2.08;;;16.50;69.40;;;;;;5037209;28;20073;-87
2021/05/16 16:33:34;;;;;;;6.20;1.75;;;16.50;64.40;;;;;;5020186;28;20041;-86
2021/05/16 16:36:19;;;;;;;7.72;1.70;;;16.40;67.30;;;;;;5019014;28;20057;-86
2021/05/16 16:45:13;;;;;;;5.85;1.38;;;16.50;62.80;;;;;;5019005;28;20033;-83
2021/05/16 16:47:39;;;;;;;6.72;1.30;;;16.70;64.00;;;;;;5015078;28;20502;-84
2021/05/16 16:50:23;;;;;;;6.68;1.77;;;16.90;63.50;;;;;;5015330;28;20068;-85
2021/05/16 16:56:11;;;;;;;7.15;2.17;;;17.20;60.60;;;;;;5017119;28;20501;-85
2021/05/16 16:58:40;;;;;;;4.88;1.63;;;17.30;61.30;;;;;;5016827;28;20022;-85
2021/05/16 17:06:53;;;;;;;9.38;2.03;;;17.20;59.80;;;;;;5022489;28;20048;-87
2021/05/16 17:09:19;;;;;;;6.35;1.60;;;17.10;59.60;;;;;;5031158;28;20022;-85
2021/05/16 17:12:03;;;;;;;4.05;1.60;;;17.00;59.70;;;;;;5036078;28;20010;-84
2021/05/16 17:15:06;;;;;;;7.43;2.38;;;17.00;59.60;;;;;;5036124;28;20026;-85
2021/05/16 17:20:54;;;;;;;7.57;1.67;;;16.90;60.70;;;;;;5017796;28;20052;-83
2021/05/16 17:23:38;;;;;;;6.20;1.80;;;16.80;59.00;;;;;;5015403;28;20478;-85
2021/05/16 17:28:48;;;;;;;8.60;1.80;;;16.70;61.90;;;;;;5016245;28;20032;-85
2021/05/16 17:31:13;;;;;;;7.35;2.53;;;16.60;62.10;;;;;;5014333;28;20030;-84
2021/05/16 17:33:39;;;;;;;7.82;2.05;;;16.50;62.40;;;;;;5016166;28;20056;-86
2021/05/16 17:36:05;;;;;;;8.88;2.13;;;16.40;61.90;;;;;;5015896;28;20129;-85
2021/05/16 17:38:32;;;;;;;4.30;1.80;;;16.30;61.90;;;;;;5018774;28;20458;-84
2021/05/16 17:41:35;;;;;;;9.32;2.60;;;16.20;63.10;;;;;;5024928;28;20046;-84
2021/05/16 17:44:19;;;;;;;11.18;2.30;;;16.00;63.00;;;;;;5018098;28;20563;-84
2021/05/16 17:46:51;;;;;;;6.95;2.30;;;15.90;63.50;;;;;;5021190;28;20025;-83
2021/05/16 17:49:17;;;;;;;6.43;1.90;;;15.90;63.90;;;;;;5022397;28;20018;-84
2021/05/16 17:52:05;;;;;;;9.60;2.47;;;15.90;64.40;;;;;;5019253;28;20446;-81
2021/05/16 17:54:50;;;;;;;9.15;2.35;;;15.80;64.40;;;;;;5019290;28;20093;-84
2021/05/16 18:00:19;;;;;;;9.40;2.53;;;15.70;65.40;;;;;;5022396;28;20092;-87
2021/05/16 18:02:49;;;;;;;8.35;2.33;;;15.60;65.80;;;;;;5025930;28;20030;-87
2021/05/16 18:05:35;;;;;;;7.15;2.10;;;15.50;65.70;;;;;;5033812;28;20041;-87
2021/05/16 18:11:04;;;;;;;8.52;2.20;;;15.40;66.80;;;;;;5028650;28;20076;-89